Terminal Aerodrome Forecast
Issued by NWS

Home | Current Version | Previous Version | Text Only | Print | Product List | Glossary On
Versions: 1 2 3 4 5 6 7 8 9 10 11 12 13 14 15 16 17 18 19 20 21 22 23 24 25 26 27 28
000
FTUS43 KLSX 261129
TAFCPS
TAF
KCPS 261129Z 2612/2712 VRB03KT 6SM BR BKN080
      TEMPO 2612/2613 2SM BR
     FM261300 VRB03KT P6SM SCT100
     FM261900 35007KT P6SM FEW250=

USA.gov is the U.S. government's official web portal to all federal, state and local government web resources and services.